sensor_id;sensor_type;location;lat;lon;timestamp;pressure;altitude;pressure_sealevel;temperature;humidity
58467;BME280;44255;49.244;7.726;2023-04-26T03:31:03;98480.03;;;3.71;79.66
58467;BME280;44255;49.244;7.726;2023-04-26T03:33:32;98477.25;;;3.90;78.83
58467;BME280;44255;49.244;7.726;2023-04-26T03:35:57;98472.97;;;3.76;79.81
58467;BME280;44255;49.244;7.726;2023-04-26T03:38:22;98471.38;;;3.55;80.90
58467;BME280;44255;49.244;7.726;2023-04-26T03:40:48;98467.75;;;3.70;80.09
58467;BME280;44255;49.244;7.726;2023-04-26T03:43:14;98458.84;;;3.87;79.25
58467;BME280;44255;49.244;7.726;2023-04-26T03:45:39;98454.47;;;3.84;79.15
58467;BME280;44255;49.244;7.726;2023-04-26T03:48:05;98452.81;;;3.72;79.33
58467;BME280;44255;49.244;7.726;2023-04-26T03:50:30;98452.81;;;3.72;78.80
58467;BME280;44255;49.244;7.726;2023-04-26T03:52:55;98457.22;;;3.72;78.36
58467;BME280;44255;49.244;7.726;2023-04-26T03:55:20;98455.59;;;3.55;79.22
58467;BME280;44255;49.244;7.726;2023-04-26T03:57:46;98456.41;;;3.63;78.65
58467;BME280;44255;49.244;7.726;2023-04-26T04:00:12;98460.81;;;3.61;79.38
58467;BME280;44255;49.244;7.726;2023-04-26T04:02:38;98469.38;;;3.85;78.73
58467;BME280;44255;49.244;7.726;2023-04-26T04:05:04;98460.66;;;3.81;78.85
58467;BME280;44255;49.244;7.726;2023-04-26T04:07:29;98462.53;;;3.64;80.13
58467;BME280;44255;49.244;7.726;2023-04-26T04:09:57;98464.34;;;3.57;80.02
58467;BME280;44255;49.244;7.726;2023-04-26T04:12:22;98459.06;;;3.60;79.04
58467;BME280;44255;49.244;7.726;2023-04-26T04:14:47;98468.69;;;3.63;78.54
58467;BME280;44255;49.244;7.726;2023-04-26T04:17:13;98467.78;;;3.68;79.44
58467;BME280;44255;49.244;7.726;2023-04-26T04:19:38;98462.44;;;3.79;79.11
58467;BME280;44255;49.244;7.726;2023-04-26T04:22:03;98469.59;;;3.57;79.22
58467;BME280;44255;49.244;7.726;2023-04-26T04:24:28;98460.72;;;3.72;78.43
58467;BME280;44255;49.244;7.726;2023-04-26T04:26:54;98477.47;;;3.60;79.15
58467;BME280;44255;49.244;7.726;2023-04-26T04:29:20;98481.13;;;3.36;79.83
58467;BME280;44255;49.244;7.726;2023-04-26T04:31:45;98482.84;;;3.46;79.62
58467;BME280;44255;49.244;7.726;2023-04-26T04:34:10;98476.63;;;3.53;79.76
58467;BME280;44255;49.244;7.726;2023-04-26T04:36:35;98488.00;;;3.59;79.01
58467;BME280;44255;49.244;7.726;2023-04-26T04:39:03;98483.69;;;3.53;79.58
58467;BME280;44255;49.244;7.726;2023-04-26T04:41:28;98482.72;;;3.59;79.99
58467;BME280;44255;49.244;7.726;2023-04-26T04:43:53;98486.13;;;3.76;79.00
58467;BME280;44255;49.244;7.726;2023-04-26T04:46:19;98480.94;;;3.68;78.95
58467;BME280;44255;49.244;7.726;2023-04-26T04:48:44;98479.16;;;3.70;78.08
58467;BME280;44255;49.244;7.726;2023-04-26T04:51:09;98486.28;;;3.56;78.95
58467;BME280;44255;49.244;7.726;2023-04-26T04:53:35;98492.31;;;3.69;78.52
58467;BME280;44255;49.244;7.726;2023-04-26T04:56:01;98481.81;;;3.66;78.90
58467;BME280;44255;49.244;7.726;2023-04-26T04:58:26;98488.84;;;3.67;77.94
58467;BME280;44255;49.244;7.726;2023-04-26T05:00:52;98481.00;;;3.61;78.81
58467;BME280;44255;49.244;7.726;2023-04-26T05:03:18;98486.97;;;3.81;79.16
58467;BME280;44255;49.244;7.726;2023-04-26T05:05:44;98497.63;;;3.66;78.12
58467;BME280;44255;49.244;7.726;2023-04-26T05:08:09;98487.78;;;3.90;76.60
58467;BME280;44255;49.244;7.726;2023-04-26T05:10:34;98484.06;;;4.16;76.79
58467;BME280;44255;49.244;7.726;2023-04-26T05:13:00;98492.78;;;4.22;74.89
58467;BME280;44255;49.244;7.726;2023-04-26T05:15:25;98497.13;;;4.25;75.61
58467;BME280;44255;49.244;7.726;2023-04-26T05:17:51;98499.91;;;4.12;76.81
58467;BME280;44255;49.244;7.726;2023-04-26T05:20:16;98499.81;;;4.22;76.20
58467;BME280;44255;49.244;7.726;2023-04-26T05:22:41;98497.13;;;4.25;75.94
58467;BME280;44255;49.244;7.726;2023-04-26T05:25:08;98496.38;;;4.10;77.34
58467;BME280;44255;49.244;7.726;2023-04-26T05:27:34;98502.50;;;4.16;77.07
58467;BME280;44255;49.244;7.726;2023-04-26T05:30:02;98499.63;;;4.40;76.22
58467;BME280;44255;49.244;7.726;2023-04-26T05:32:27;98503.81;;;4.62;74.96
58467;BME280;44255;49.244;7.726;2023-04-26T05:34:53;98498.03;;;4.24;77.22
58467;BME280;44255;49.244;7.726;2023-04-26T05:37:18;98506.75;;;4.32;76.88
58467;BME280;44255;49.244;7.726;2023-04-26T05:39:43;98506.56;;;4.51;75.59
58467;BME280;44255;49.244;7.726;2023-04-26T05:42:08;98514.38;;;4.63;75.03
58467;BME280;44255;49.244;7.726;2023-04-26T05:44:34;98518.06;;;4.40;75.40
58467;BME280;44255;49.244;7.726;2023-04-26T05:47:00;98517.97;;;4.51;75.48
58467;BME280;44255;49.244;7.726;2023-04-26T05:49:25;98516.09;;;4.63;75.43
58467;BME280;44255;49.244;7.726;2023-04-26T05:51:50;98514.47;;;4.49;75.71
58467;BME280;44255;49.244;7.726;2023-04-26T05:54:16;98518.72;;;4.67;75.47
58467;BME280;44255;49.244;7.726;2023-04-26T05:56:41;98521.22;;;4.77;75.28
58467;BME280;44255;49.244;7.726;2023-04-26T05:59:07;98520.22;;;4.92;75.93
58467;BME280;44255;49.244;7.726;2023-04-26T06:01:32;98519.00;;;5.19;76.11
58467;BME280;44255;49.244;7.726;2023-04-26T06:03:57;98520.59;;;5.33;74.19
58467;BME280;44255;49.244;7.726;2023-04-26T06:06:23;98522.97;;;5.51;74.32
58467;BME280;44255;49.244;7.726;2023-04-26T06:08:48;98513.38;;;5.46;74.91
58467;BME280;44255;49.244;7.726;2023-04-26T06:11:13;98514.00;;;5.63;73.98
58467;BME280;44255;49.244;7.726;2023-04-26T06:13:38;98517.56;;;5.61;73.71
58467;BME280;44255;49.244;7.726;2023-04-26T06:16:04;98521.75;;;5.76;74.48
58467;BME280;44255;49.244;7.726;2023-04-26T06:18:29;98520.97;;;5.69;74.33
58467;BME280;44255;49.244;7.726;2023-04-26T06:20:54;98518.50;;;5.58;75.54
58467;BME280;44255;49.244;7.726;2023-04-26T06:23:20;98524.28;;;5.83;74.61
58467;BME280;44255;49.244;7.726;2023-04-26T06:25:45;98520.97;;;5.69;74.98
58467;BME280;44255;49.244;7.726;2023-04-26T06:28:11;98523.56;;;5.72;74.91
58467;BME280;44255;49.244;7.726;2023-04-26T06:30:36;98515.63;;;5.74;75.38
58467;BME280;44255;49.244;7.726;2023-04-26T06:33:02;98511.56;;;6.12;74.20
58467;BME280;44255;49.244;7.726;2023-04-26T06:35:27;98506.47;;;5.96;75.06
58467;BME280;44255;49.244;7.726;2023-04-26T06:37:52;98514.84;;;5.65;76.89
58467;BME280;44255;49.244;7.726;2023-04-26T06:40:18;98511.38;;;6.21;76.21
58467;BME280;44255;49.244;7.726;2023-04-26T06:42:43;98508.19;;;6.54;75.16
58467;BME280;44255;49.244;7.726;2023-04-26T06:45:09;98507.94;;;6.18;75.34
58467;BME280;44255;49.244;7.726;2023-04-26T06:47:35;98503.13;;;6.42;75.72
58467;BME280;44255;49.244;7.726;2023-04-26T06:50:02;98495.47;;;6.75;74.92
58467;BME280;44255;49.244;7.726;2023-04-26T06:52:27;98489.13;;;6.83;75.17
58467;BME280;44255;49.244;7.726;2023-04-26T06:54:54;98487.00;;;7.03;76.03
58467;BME280;44255;49.244;7.726;2023-04-26T06:57:19;98489.34;;;7.17;74.26
58467;BME280;44255;49.244;7.726;2023-04-26T06:59:44;98493.50;;;7.29;74.84
58467;BME280;44255;49.244;7.726;2023-04-26T07:02:10;98491.63;;;7.34;75.06
58467;BME280;44255;49.244;7.726;2023-04-26T07:04:35;98495.41;;;7.63;75.10
58467;BME280;44255;49.244;7.726;2023-04-26T07:07:01;98484.56;;;7.75;73.82
58467;BME280;44255;49.244;7.726;2023-04-26T07:09:26;98485.19;;;7.85;73.96
58467;BME280;44255;49.244;7.726;2023-04-26T07:11:52;98495.81;;;7.83;71.85
58467;BME280;44255;49.244;7.726;2023-04-26T07:14:17;98504.94;;;7.70;73.24
58467;BME280;44255;49.244;7.726;2023-04-26T07:16:43;98501.34;;;7.74;73.81
58467;BME280;44255;49.244;7.726;2023-04-26T07:19:08;98492.69;;;8.04;73.27
58467;BME280;44255;49.244;7.726;2023-04-26T07:21:35;98494.69;;;7.56;75.62
58467;BME280;44255;49.244;7.726;2023-04-26T07:24:00;98496.50;;;7.52;74.79
58467;BME280;44255;49.244;7.726;2023-04-26T07:26:25;98494.66;;;7.58;74.17
58467;BME280;44255;49.244;7.726;2023-04-26T07:28:51;98493.78;;;7.95;72.12
58467;BME280;44255;49.244;7.726;2023-04-26T07:31:16;98484.56;;;8.11;71.60
58467;BME280;44255;49.244;7.726;2023-04-26T07:33:42;98487.00;;;7.83;72.69
58467;BME280;44255;49.244;7.726;2023-04-26T07:36:07;98493.25;;;8.17;71.80
58467;BME280;44255;49.244;7.726;2023-04-26T07:38:33;98476.53;;;8.51;68.76
58467;BME280;44255;49.244;7.726;2023-04-26T07:40:58;98483.00;;;8.74;70.80
58467;BME280;44255;49.244;7.726;2023-04-26T07:43:25;98477.53;;;8.80;70.55
58467;BME280;44255;49.244;7.726;2023-04-26T07:45:50;98480.75;;;8.91;69.08
58467;BME280;44255;49.244;7.726;2023-04-26T07:48:16;98484.19;;;9.27;68.63
58467;BME280;44255;49.244;7.726;2023-04-26T07:50:41;98477.28;;;9.49;68.94
58467;BME280;44255;49.244;7.726;2023-04-26T07:53:06;98473.28;;;9.64;67.38
58467;BME280;44255;49.244;7.726;2023-04-26T07:55:31;98470.22;;;9.78;67.83
58467;BME280;44255;49.244;7.726;2023-04-26T07:57:57;98468.84;;;9.93;67.28
58467;BME280;44255;49.244;7.726;2023-04-26T08:00:22;98468.28;;;10.10;65.07
58467;BME280;44255;49.244;7.726;2023-04-26T08:02:47;98468.94;;;10.17;65.35
58467;BME280;44255;49.244;7.726;2023-04-26T08:05:14;98470.22;;;10.32;65.54
58467;BME280;44255;49.244;7.726;2023-04-26T08:07:40;98465.97;;;10.27;64.50
58467;BME280;44255;49.244;7.726;2023-04-26T08:10:06;98472.78;;;10.35;64.18
58467;BME280;44255;49.244;7.726;2023-04-26T08:12:33;98473.31;;;10.47;62.96
58467;BME280;44255;49.244;7.726;2023-04-26T08:14:59;98485.56;;;10.24;58.90
58467;BME280;44255;49.244;7.726;2023-04-26T08:17:25;98469.22;;;10.35;59.56
58467;BME280;44255;49.244;7.726;2023-04-26T08:19:50;98473.31;;;10.47;60.42
58467;BME280;44255;49.244;7.726;2023-04-26T08:22:15;98472.06;;;10.30;57.14
58467;BME280;44255;49.244;7.726;2023-04-26T08:24:41;98468.19;;;10.41;56.67
58467;BME280;44255;49.244;7.726;2023-04-26T08:27:11;98462.19;;;10.61;57.16
58467;BME280;44255;49.244;7.726;2023-04-26T08:29:36;98461.34;;;10.32;57.26
58467;BME280;44255;49.244;7.726;2023-04-26T08:32:01;98469.34;;;10.32;56.71
58467;BME280;44255;49.244;7.726;2023-04-26T08:34:26;98462.25;;;10.32;55.38
58467;BME280;44255;49.244;7.726;2023-04-26T08:36:53;98462.81;;;10.42;56.08
58467;BME280;44255;49.244;7.726;2023-04-26T08:39:18;98463.09;;;10.33;54.76
58467;BME280;44255;49.244;7.726;2023-04-26T08:41:47;98460.63;;;10.28;56.51
58467;BME280;44255;49.244;7.726;2023-04-26T08:44:13;98457.41;;;10.45;54.97
58467;BME280;44255;49.244;7.726;2023-04-26T08:49:39;98452.47;;;10.33;54.92
58467;BME280;44255;49.244;7.726;2023-04-26T08:52:08;98450.34;;;10.44;53.66
58467;BME280;44255;49.244;7.726;2023-04-26T08:54:35;98456.84;;;10.61;52.73
58467;BME280;44255;49.244;7.726;2023-04-26T08:57:01;98464.09;;;10.30;52.64
58467;BME280;44255;49.244;7.726;2023-04-26T08:59:28;98456.53;;;10.45;53.83
58467;BME280;44255;49.244;7.726;2023-04-26T09:01:54;98453.50;;;10.56;53.58
58467;BME280;44255;49.244;7.726;2023-04-26T09:04:19;98460.28;;;10.37;51.60
58467;BME280;44255;49.244;7.726;2023-04-26T09:06:44;98461.25;;;10.35;50.70
58467;BME280;44255;49.244;7.726;2023-04-26T09:09:12;98449.66;;;10.64;50.48
58467;BME280;44255;49.244;7.726;2023-04-26T09:11:56;98444.09;;;10.94;50.80
58467;BME280;44255;49.244;7.726;2023-04-26T09:14:23;98447.53;;;10.74;49.50
58467;BME280;44255;49.244;7.726;2023-04-26T09:16:49;98447.28;;;10.55;49.46
58467;BME280;44255;49.244;7.726;2023-04-26T09:19:14;98451.47;;;10.88;49.47
58467;BME280;44255;49.244;7.726;2023-04-26T09:21:43;98452.22;;;10.66;48.86
58467;BME280;44255;49.244;7.726;2023-04-26T09:24:09;98452.84;;;10.74;46.75
58467;BME280;44255;49.244;7.726;2023-04-26T09:26:35;98455.63;;;10.71;48.14
58467;BME280;44255;49.244;7.726;2023-04-26T09:29:14;98451.63;;;11.55;50.06
58467;BME280;44255;49.244;7.726;2023-04-26T09:31:42;98455.16;;;12.00;50.59
58467;BME280;44255;49.244;7.726;2023-04-26T09:34:10;98443.41;;;12.05;48.25
58467;BME280;44255;49.244;7.726;2023-04-26T09:36:48;98438.91;;;12.28;49.53
58467;BME280;44255;49.244;7.726;2023-04-26T09:39:13;98435.75;;;12.39;48.09
58467;BME280;44255;49.244;7.726;2023-04-26T09:41:45;98436.63;;;11.97;46.78
58467;BME280;44255;49.244;7.726;2023-04-26T09:44:20;98431.47;;;11.70;46.50
58467;BME280;44255;49.244;7.726;2023-04-26T09:49:48;98426.09;;;11.71;46.50
58467;BME280;44255;49.244;7.726;2023-04-26T09:52:13;98429.38;;;11.56;46.52
58467;BME280;44255;49.244;7.726;2023-04-26T09:54:39;98432.97;;;11.08;46.03
58467;BME280;44255;49.244;7.726;2023-04-26T09:57:05;98429.19;;;11.60;46.34
58467;BME280;44255;49.244;7.726;2023-04-26T09:59:48;98419.47;;;11.81;45.74
58467;BME280;44255;49.244;7.726;2023-04-26T10:02:24;98431.16;;;12.22;47.01
58467;BME280;44255;49.244;7.726;2023-04-26T10:04:52;98431.34;;;12.38;45.47
58467;BME280;44255;49.244;7.726;2023-04-26T10:07:22;98428.00;;;11.90;45.57
58467;BME280;44255;49.244;7.726;2023-04-26T10:09:48;98424.91;;;11.78;45.28
58467;BME280;44255;49.244;7.726;2023-04-26T10:12:17;98417.53;;;12.07;45.67
58467;BME280;44255;49.244;7.726;2023-04-26T10:14:44;98421.38;;;12.00;44.67
58467;BME280;44255;49.244;7.726;2023-04-26T10:17:11;98427.03;;;11.70;45.13
58467;BME280;44255;49.244;7.726;2023-04-26T10:19:37;98431.47;;;11.70;44.44
58467;BME280;44255;49.244;7.726;2023-04-26T10:22:09;98428.72;;;11.27;45.34
58467;BME280;44255;49.244;7.726;2023-04-26T10:24:35;98436.41;;;11.34;43.72
58467;BME280;44255;49.244;7.726;2023-04-26T10:27:01;98429.06;;;11.86;43.23
58467;BME280;44255;49.244;7.726;2023-04-26T10:32:22;98426.47;;;11.84;43.70
58467;BME280;44255;49.244;7.726;2023-04-26T10:35:08;98410.00;;;12.17;43.55
58467;BME280;44255;49.244;7.726;2023-04-26T10:40:32;98402.28;;;12.11;42.88
58467;BME280;44255;49.244;7.726;2023-04-26T10:45:45;98401.94;;;12.60;42.96
58467;BME280;44255;49.244;7.726;2023-04-26T10:53:26;98385.72;;;13.05;41.26
58467;BME280;44255;49.244;7.726;2023-04-26T10:55:52;98377.44;;;12.71;41.33
58467;BME280;44255;49.244;7.726;2023-04-26T10:58:28;98381.28;;;12.85;42.84
58467;BME280;44255;49.244;7.726;2023-04-26T11:01:16;98371.59;;;12.21;42.08
58467;BME280;44255;49.244;7.726;2023-04-26T11:03:44;98377.03;;;12.80;42.53
58467;BME280;44255;49.244;7.726;2023-04-26T11:06:46;98380.53;;;12.62;42.53
58467;BME280;44255;49.244;7.726;2023-04-26T11:11:57;98368.81;;;13.04;40.70
58467;BME280;44255;49.244;7.726;2023-04-26T11:14:23;98356.31;;;13.43;42.13
58467;BME280;44255;49.244;7.726;2023-04-26T11:16:49;98369.75;;;12.84;40.89
58467;BME280;44255;49.244;7.726;2023-04-26T11:19:14;98364.75;;;13.34;41.79
58467;BME280;44255;49.244;7.726;2023-04-26T11:21:39;98363.25;;;13.47;41.24
58467;BME280;44255;49.244;7.726;2023-04-26T11:24:05;98349.06;;;13.64;41.79
58467;BME280;44255;49.244;7.726;2023-04-26T11:26:32;98347.75;;;13.73;41.60
58467;BME280;44255;49.244;7.726;2023-04-26T11:28:58;98348.59;;;13.74;41.62
58467;BME280;44255;49.244;7.726;2023-04-26T11:31:23;98348.53;;;13.75;41.87
58467;BME280;44255;49.244;7.726;2023-04-26T11:33:49;98342.03;;;13.62;41.62
58467;BME280;44255;49.244;7.726;2023-04-26T11:36:14;98339.41;;;13.79;41.99
58467;BME280;44255;49.244;7.726;2023-04-26T11:38:39;98341.56;;;13.54;39.73
58467;BME280;44255;49.244;7.726;2023-04-26T11:41:05;98341.56;;;13.15;40.73
58467;BME280;44255;49.244;7.726;2023-04-26T11:43:36;98331.47;;;13.22;40.00
58467;BME280;44255;49.244;7.726;2023-04-26T11:46:03;98334.19;;;13.59;40.10
58467;BME280;44255;49.244;7.726;2023-04-26T11:48:29;98339.47;;;13.41;41.00
58467;BME280;44255;49.244;7.726;2023-04-26T11:50:59;98333.97;;;13.63;40.77
58467;BME280;44255;49.244;7.726;2023-04-26T11:53:40;98325.94;;;13.63;39.79
58467;BME280;44255;49.244;7.726;2023-04-26T11:58:38;98312.19;;;15.07;39.08
58467;BME280;44255;49.244;7.726;2023-04-26T12:01:03;98322.91;;;14.91;40.38
58467;BME280;44255;49.244;7.726;2023-04-26T12:03:33;98322.19;;;15.36;40.59
58467;BME280;44255;49.244;7.726;2023-04-26T12:06:05;98325.13;;;15.31;38.11
58467;BME280;44255;49.244;7.726;2023-04-26T12:08:31;98318.69;;;15.66;37.68
58467;BME280;44255;49.244;7.726;2023-04-26T12:11:01;98307.47;;;17.49;35.46
58467;BME280;44255;49.244;7.726;2023-04-26T12:13:27;98307.72;;;19.16;33.55
58467;BME280;44255;49.244;7.726;2023-04-26T12:15:53;98308.47;;;19.67;32.52
58467;BME280;44255;49.244;7.726;2023-04-26T12:18:18;98311.34;;;18.65;33.95
58467;BME280;44255;49.244;7.726;2023-04-26T12:20:44;98316.25;;;17.66;33.52
58467;BME280;44255;49.244;7.726;2023-04-26T12:23:12;98307.63;;;19.42;33.43
58467;BME280;44255;49.244;7.726;2023-04-26T12:25:39;98306.56;;;20.52;33.02
58467;BME280;44255;49.244;7.726;2023-04-26T12:28:07;98300.56;;;20.01;31.09
58467;BME280;44255;49.244;7.726;2023-04-26T12:30:36;98311.34;;;18.26;33.87
58467;BME280;44255;49.244;7.726;2023-04-26T12:33:01;98313.25;;;17.43;35.14
58467;BME280;44255;49.244;7.726;2023-04-26T12:35:26;98312.25;;;17.17;37.33
58467;BME280;44255;49.244;7.726;2023-04-26T12:37:52;98301.41;;;18.66;35.20
58467;BME280;44255;49.244;7.726;2023-04-26T12:40:19;98303.41;;;17.57;35.38
58467;BME280;44255;49.244;7.726;2023-04-26T12:42:47;98304.50;;;16.98;37.96
58467;BME280;44255;49.244;7.726;2023-04-26T12:45:13;98312.03;;;16.63;36.53
58467;BME280;44255;49.244;7.726;2023-04-26T12:47:38;98312.38;;;16.28;36.00
58467;BME280;44255;49.244;7.726;2023-04-26T12:50:04;98313.13;;;16.16;36.75
58467;BME280;44255;49.244;7.726;2023-04-26T12:52:30;98313.19;;;16.45;37.01
58467;BME280;44255;49.244;7.726;2023-04-26T12:54:56;98311.06;;;16.50;36.09
58467;BME280;44255;49.244;7.726;2023-04-26T12:57:21;98322.56;;;16.52;37.46
58467;BME280;44255;49.244;7.726;2023-04-26T12:59:47;98311.13;;;16.34;36.74
58467;BME280;44255;49.244;7.726;2023-04-26T13:02:12;98319.50;;;16.29;37.63
58467;BME280;44255;49.244;7.726;2023-04-26T13:04:37;98307.78;;;17.85;34.86
58467;BME280;44255;49.244;7.726;2023-04-26T13:07:03;98298.53;;;19.19;33.50
58467;BME280;44255;49.244;7.726;2023-04-26T13:09:28;98289.78;;;20.13;34.03
58467;BME280;44255;49.244;7.726;2023-04-26T13:11:53;98290.38;;;21.09;33.71
58467;BME280;44255;49.244;7.726;2023-04-26T13:14:19;98295.53;;;21.12;33.41
58467;BME280;44255;49.244;7.726;2023-04-26T13:16:44;98292.44;;;20.60;31.50
58467;BME280;44255;49.244;7.726;2023-04-26T13:19:09;98292.03;;;20.30;31.62
58467;BME280;44255;49.244;7.726;2023-04-26T13:21:36;98289.22;;;21.35;31.45
58467;BME280;44255;49.244;7.726;2023-04-26T13:24:01;98289.47;;;21.97;29.97
58467;BME280;44255;49.244;7.726;2023-04-26T13:26:26;98283.06;;;21.77;29.28
58467;BME280;44255;49.244;7.726;2023-04-26T13:28:52;98283.84;;;22.00;27.24
58467;BME280;44255;49.244;7.726;2023-04-26T13:31:18;98282.63;;;22.35;29.06
58467;BME280;44255;49.244;7.726;2023-04-26T13:33:43;98277.47;;;22.84;27.85
58467;BME280;44255;49.244;7.726;2023-04-26T13:36:11;98285.63;;;23.35;27.85
58467;BME280;44255;49.244;7.726;2023-04-26T13:38:36;98287.00;;;22.48;26.36
58467;BME280;44255;49.244;7.726;2023-04-26T13:41:01;98286.38;;;23.47;27.19
58467;BME280;44255;49.244;7.726;2023-04-26T13:43:27;98290.09;;;22.00;25.71
58467;BME280;44255;49.244;7.726;2023-04-26T13:45:52;98296.94;;;19.16;28.12
58467;BME280;44255;49.244;7.726;2023-04-26T13:48:17;98296.91;;;18.14;30.45
58467;BME280;44255;49.244;7.726;2023-04-26T13:50:42;98297.66;;;18.29;31.64
58467;BME280;44255;49.244;7.726;2023-04-26T13:53:08;98297.81;;;17.60;30.60
58467;BME280;44255;49.244;7.726;2023-04-26T13:55:33;98303.25;;;17.18;30.93
58467;BME280;44255;49.244;7.726;2023-04-26T13:57:58;98294.38;;;17.30;32.40
58467;BME280;44255;49.244;7.726;2023-04-26T14:00:23;98289.63;;;17.48;32.11
58467;BME280;44255;49.244;7.726;2023-04-26T14:02:49;98280.91;;;17.58;32.46
58467;BME280;44255;49.244;7.726;2023-04-26T14:05:15;98287.09;;;17.18;32.61
58467;BME280;44255;49.244;7.726;2023-04-26T14:07:40;98288.44;;;17.25;33.05
58467;BME280;44255;49.244;7.726;2023-04-26T14:10:06;98288.78;;;17.61;33.17
58467;BME280;44255;49.244;7.726;2023-04-26T14:12:32;98287.50;;;16.97;32.77
58467;BME280;44255;49.244;7.726;2023-04-26T14:14:57;98288.13;;;16.88;32.53
58467;BME280;44255;49.244;7.726;2023-04-26T14:17:24;98285.03;;;16.94;34.70
58467;BME280;44255;49.244;7.726;2023-04-26T14:19:49;98280.88;;;17.17;34.84
58467;BME280;44255;49.244;7.726;2023-04-26T14:22:15;98286.72;;;17.24;34.14
58467;BME280;44255;49.244;7.726;2023-04-26T14:24:41;98280.16;;;17.01;35.29
58467;BME280;44255;49.244;7.726;2023-04-26T14:27:07;98278.25;;;17.30;34.86
58467;BME280;44255;49.244;7.726;2023-04-26T14:29:32;98279.31;;;17.55;34.53
58467;BME280;44255;49.244;7.726;2023-04-26T14:31:58;98284.03;;;17.52;33.95
58467;BME280;44255;49.244;7.726;2023-04-26T14:34:23;98277.69;;;17.53;34.53
58467;BME280;44255;49.244;7.726;2023-04-26T14:36:48;98277.84;;;18.43;34.36
58467;BME280;44255;49.244;7.726;2023-04-26T14:39:13;98275.25;;;18.68;33.50
58467;BME280;44255;49.244;7.726;2023-04-26T14:41:40;98275.47;;;19.88;32.94
58467;BME280;44255;49.244;7.726;2023-04-26T14:44:06;98267.28;;;20.82;30.96
58467;BME280;44255;49.244;7.726;2023-04-26T14:46:31;98268.09;;;21.17;31.69
58467;BME280;44255;49.244;7.726;2023-04-26T14:48:56;98257.09;;;22.38;29.19
58467;BME280;44255;49.244;7.726;2023-04-26T14:51:22;98257.47;;;22.85;28.15
58467;BME280;44255;49.244;7.726;2023-04-26T14:53:47;98260.22;;;23.76;26.52
58467;BME280;44255;49.244;7.726;2023-04-26T14:56:12;98249.97;;;24.94;25.88
58467;BME280;44255;49.244;7.726;2023-04-26T14:58:37;98253.50;;;24.67;25.78
58467;BME280;44255;49.244;7.726;2023-04-26T15:01:03;98246.13;;;25.15;24.73
58467;BME280;44255;49.244;7.726;2023-04-26T15:03:28;98242.09;;;26.28;24.00
58467;BME280;44255;49.244;7.726;2023-04-26T15:05:53;98233.53;;;27.35;23.47
58467;BME280;44255;49.244;7.726;2023-04-26T15:08:19;98232.22;;;27.56;22.51
58467;BME280;44255;49.244;7.726;2023-04-26T15:10:44;98234.81;;;27.91;22.01
58467;BME280;44255;49.244;7.726;2023-04-26T15:13:09;98234.31;;;28.12;21.42
58467;BME280;44255;49.244;7.726;2023-04-26T15:15:34;98237.00;;;28.45;20.63
58467;BME280;44255;49.244;7.726;2023-04-26T15:18:00;98232.97;;;29.21;20.46
58467;BME280;44255;49.244;7.726;2023-04-26T15:20:25;98235.41;;;28.67;18.89
58467;BME280;44255;49.244;7.726;2023-04-26T15:22:51;98234.81;;;28.07;20.50
58467;BME280;44255;49.244;7.726;2023-04-26T15:25:16;98248.81;;;25.97;20.46
58467;BME280;44255;49.244;7.726;2023-04-26T15:27:41;98256.16;;;24.39;22.73
58467;BME280;44255;49.244;7.726;2023-04-26T15:30:07;98248.59;;;23.24;23.52
58467;BME280;44255;49.244;7.726;2023-04-26T15:32:36;98257.63;;;24.23;22.71
58467;BME280;44255;49.244;7.726;2023-04-26T15:35:01;98251.16;;;24.34;22.75
58467;BME280;44255;49.244;7.726;2023-04-26T15:37:26;98244.50;;;22.89;23.19
58467;BME280;44255;49.244;7.726;2023-04-26T15:39:51;98248.00;;;24.39;22.24
58467;BME280;44255;49.244;7.726;2023-04-26T15:42:17;98246.50;;;23.67;23.02
58467;BME280;44255;49.244;7.726;2023-04-26T15:44:42;98240.28;;;25.10;21.86
58467;BME280;44255;49.244;7.726;2023-04-26T15:47:07;98245.50;;;23.88;22.95
58467;BME280;44255;49.244;7.726;2023-04-26T15:49:33;98234.03;;;23.94;22.83
58467;BME280;44255;49.244;7.726;2023-04-26T15:51:58;98239.41;;;22.12;24.75
58467;BME280;44255;49.244;7.726;2023-04-26T15:54:23;98239.59;;;19.74;27.12
58467;BME280;44255;49.244;7.726;2023-04-26T15:56:50;98248.81;;;20.65;27.64
58467;BME280;44255;49.244;7.726;2023-04-26T15:59:16;98242.44;;;20.54;26.65
58467;BME280;44255;49.244;7.726;2023-04-26T16:01:41;98246.66;;;19.64;27.43
58467;BME280;44255;49.244;7.726;2023-04-26T16:04:07;98251.63;;;18.58;28.93
58467;BME280;44255;49.244;7.726;2023-04-26T16:06:33;98252.50;;;18.59;28.92
58467;BME280;44255;49.244;7.726;2023-04-26T16:08:59;98242.41;;;19.00;28.31
58467;BME280;44255;49.244;7.726;2023-04-26T16:11:25;98245.00;;;18.88;28.92
58467;BME280;44255;49.244;7.726;2023-04-26T16:13:51;98238.41;;;18.93;28.30
58467;BME280;44255;49.244;7.726;2023-04-26T16:16:17;98237.63;;;19.76;28.32
58467;BME280;44255;49.244;7.726;2023-04-26T16:18:42;98243.50;;;19.82;27.13
58467;BME280;44255;49.244;7.726;2023-04-26T16:21:08;98247.91;;;19.71;27.40
58467;BME280;44255;49.244;7.726;2023-04-26T16:23:34;98255.78;;;18.88;28.47
58467;BME280;44255;49.244;7.726;2023-04-26T16:26:00;98252.00;;;19.04;28.22
58467;BME280;44255;49.244;7.726;2023-04-26T16:28:26;98247.03;;;19.35;28.04
58467;BME280;44255;49.244;7.726;2023-04-26T16:30:51;98254.50;;;19.67;27.83
58467;BME280;44255;49.244;7.726;2023-04-26T16:33:17;98246.66;;;19.64;27.92
58467;BME280;44255;49.244;7.726;2023-04-26T16:35:42;98252.41;;;19.11;28.79
58467;BME280;44255;49.244;7.726;2023-04-26T16:38:07;98245.63;;;19.05;28.35
58467;BME280;44255;49.244;7.726;2023-04-26T16:40:32;98243.38;;;18.36;30.36
58467;BME280;44255;49.244;7.726;2023-04-26T16:42:58;98240.59;;;18.74;28.95
58467;BME280;44255;49.244;7.726;2023-04-26T16:45:24;98247.53;;;19.40;28.99
58467;BME280;44255;49.244;7.726;2023-04-26T16:47:50;98247.94;;;19.47;28.14
58467;BME280;44255;49.244;7.726;2023-04-26T16:50:15;98244.53;;;18.95;28.93
58467;BME280;44255;49.244;7.726;2023-04-26T16:52:40;98245.50;;;19.55;28.24
58467;BME280;44255;49.244;7.726;2023-04-26T16:55:06;98245.31;;;19.70;27.46